Time;durP1;ratioP1;P1;durP2;ratioP2;P2;SDS_P1;SDS_P2;PMS_P1;PMS_P2;Temp;Humidity;BMP_temperature;BMP_pressure;BME280_temperature;BME280_humidity;BME280_pressure;Samples;Min_cycle;Max_cycle;Signal;HPM_P1;HPM_P2
2022/04/30 00:00:08;;;;;;;10.05;5.45;;;;;;;6.80;75.43;102846.97;5004705;28;20076;-59
2022/04/30 00:02:33;;;;;;;10.93;5.65;;;;;;;6.80;75.39;102849.69;5003286;28;20046;-60
2022/04/30 00:04:59;;;;;;;11.18;5.32;;;;;;;6.78;75.79;102842.66;5003736;28;20034;-59
2022/04/30 00:07:24;;;;;;;9.95;5.40;;;;;;;6.73;75.67;102846.69;5002449;28;20018;-59
2022/04/30 00:09:49;;;;;;;9.90;5.20;;;;;;;6.75;75.34;102841.97;5004768;28;20473;-59
2022/04/30 00:12:18;;;;;;;9.45;5.40;;;;;;;6.70;75.55;102835.25;5002262;28;20033;-59
2022/04/30 00:14:47;;;;;;;9.27;5.45;;;;;;;6.69;75.52;102842.59;5005270;28;20113;-59
2022/04/30 00:17:14;;;;;;;8.07;5.10;;;;;;;6.66;75.76;102844.78;5001401;28;20042;-59
2022/04/30 00:19:39;;;;;;;7.82;4.97;;;;;;;6.66;76.00;102844.78;5004792;28;20041;-54
2022/04/30 00:22:05;;;;;;;10.38;5.20;;;;;;;6.63;76.01;102840.47;5001466;28;20038;-59
2022/04/30 00:24:30;;;;;;;9.48;5.07;;;;;;;6.60;76.07;102843.53;5003901;28;20034;-59
2022/04/30 00:26:56;;;;;;;9.75;5.43;;;;;;;6.57;76.20;102840.25;4997849;28;20034;-59
2022/04/30 00:29:23;;;;;;;9.43;4.85;;;;;;;6.51;76.65;102841.72;4994702;28;20033;-59
2022/04/30 00:31:49;;;;;;;11.25;4.88;;;;;;;6.48;76.61;102839.28;5002752;28;20033;-59
2022/04/30 00:34:15;;;;;;;8.98;5.03;;;;;;;6.46;76.89;102836.72;5003851;28;20512;-59
2022/04/30 00:36:40;;;;;;;9.60;5.57;;;;;;;6.46;77.05;102835.88;5001359;28;20029;-59
2022/04/30 00:39:05;;;;;;;9.65;5.03;;;;;;;6.41;77.13;102836.34;5003217;28;20025;-59
2022/04/30 00:41:33;;;;;;;9.60;5.32;;;;;;;6.39;77.38;102830.19;5002641;28;20026;-59
2022/04/30 00:44:00;;;;;;;8.25;5.22;;;;;;;6.35;77.65;102823.31;5002325;28;20103;-59
2022/04/30 00:46:26;;;;;;;9.88;5.30;;;;;;;6.32;77.89;102829.06;5001415;28;20117;-59
2022/04/30 00:48:53;;;;;;;11.65;5.78;;;;;;;6.28;77.87;102830.38;5003156;28;20131;-59
2022/04/30 00:51:20;;;;;;;10.02;5.47;;;;;;;6.24;78.21;102831.72;5002777;28;20052;-59
2022/04/30 00:53:48;;;;;;;12.55;5.65;;;;;;;6.22;78.20;102831.00;5002970;28;20101;-59
2022/04/30 00:56:17;;;;;;;8.98;5.90;;;;;;;6.21;78.23;102830.13;5000780;28;20034;-59
2022/04/30 00:58:45;;;;;;;10.55;5.72;;;;;;;6.13;78.25;102826.44;5003653;28;20153;-59
2022/04/30 01:01:11;;;;;;;11.63;5.35;;;;;;;6.06;78.74;102828.09;5001918;28;20392;-59
2022/04/30 01:03:36;;;;;;;8.07;5.60;;;;;;;5.97;79.19;102819.78;4998560;28;20104;-59
2022/04/30 01:06:03;;;;;;;8.52;5.43;;;;;;;5.95;79.65;102818.25;5002136;28;20037;-59
2022/04/30 01:08:29;;;;;;;13.18;6.22;;;;;;;5.91;80.08;102822.25;5001328;28;20258;-59
2022/04/30 01:10:56;;;;;;;11.05;5.95;;;;;;;5.90;80.18;102812.34;5001885;28;20149;-59
2022/04/30 01:13:21;;;;;;;10.98;5.95;;;;;;;5.85;79.96;102820.13;5000059;28;20041;-60
2022/04/30 01:15:46;;;;;;;12.52;5.85;;;;;;;5.86;80.57;102813.66;5002525;28;20376;-59
2022/04/30 01:18:12;;;;;;;11.77;5.63;;;;;;;5.83;80.46;102813.97;5000436;28;20040;-59
2022/04/30 01:20:46;;;;;;;11.23;6.00;;;;;;;5.83;80.83;102805.78;5002607;28;20480;-59
2022/04/30 01:23:13;;;;;;;11.57;6.22;;;;;;;5.82;80.98;102804.91;5003696;28;20029;-59
2022/04/30 01:25:39;;;;;;;10.25;6.05;;;;;;;5.80;80.99;102806.94;5002861;28;20451;-59
2022/04/30 01:28:05;;;;;;;11.02;6.22;;;;;;;5.82;81.28;102801.34;4989017;28;20030;-59
2022/04/30 01:30:31;;;;;;;11.10;6.30;;;;;;;5.77;81.06;102804.50;4999420;28;20034;-59
2022/04/30 01:38:24;;;;;;;9.05;5.97;;;;;;;5.59;81.29;102796.28;5001756;28;20045;-59
2022/04/30 01:40:49;;;;;;;12.65;6.65;;;;;;;5.55;81.54;102797.59;5001117;28;20045;-59
2022/04/30 01:43:16;;;;;;;10.80;6.10;;;;;;;5.45;81.68;102800.34;5001951;28;20037;-59
2022/04/30 01:45:44;;;;;;;12.55;6.03;;;;;;;5.38;82.06;102804.69;5000564;28;20030;-59
2022/04/30 01:48:12;;;;;;;12.32;6.55;;;;;;;5.34;81.85;102807.88;5000947;28;20030;-55
2022/04/30 01:50:37;;;;;;;11.70;6.53;;;;;;;5.27;82.13;102802.16;5001698;28;20073;-59
2022/04/30 01:53:03;;;;;;;11.15;6.90;;;;;;;5.22;82.62;102801.75;5003631;28;20057;-59
2022/04/30 01:55:28;;;;;;;11.20;6.95;;;;;;;5.19;82.93;102796.56;5001710;28;20119;-59
2022/04/30 01:57:53;;;;;;;13.23;6.75;;;;;;;5.19;82.97;102808.31;5002396;28;20030;-59
2022/04/30 02:00:20;;;;;;;13.80;7.18;;;;;;;5.14;83.08;102802.47;5003156;28;20034;-59
2022/04/30 02:02:48;;;;;;;11.23;6.78;;;;;;;5.08;83.27;102797.59;5002807;28;20448;-59
2022/04/30 02:05:14;;;;;;;11.32;6.60;;;;;;;5.06;82.91;102798.75;5001564;28;20365;-59
2022/04/30 02:08:03;;;;;;;11.77;7.13;;;;;;;5.04;83.36;102793.47;5001043;28;20026;-59
2022/04/30 02:10:29;;;;;;;12.38;6.97;;;;;;;4.97;83.18;102791.44;5002006;28;20057;-59
2022/04/30 02:12:54;;;;;;;9.80;7.53;;;;;;;4.89;83.46;102793.06;5001189;28;20136;-59
2022/04/30 02:15:20;;;;;;;10.73;6.85;;;;;;;4.86;83.75;102787.88;5002744;28;20180;-59
2022/04/30 02:17:46;;;;;;;12.10;7.60;;;;;;;4.82;83.72;102785.63;5001184;28;20033;-59
2022/04/30 02:20:24;;;;;;;12.80;7.63;;;;;;;4.78;83.86;102785.06;5001519;28;20038;-59
2022/04/30 02:22:51;;;;;;;12.98;7.68;;;;;;;4.74;83.64;102785.47;5001564;28;20057;-59
2022/04/30 02:25:17;;;;;;;14.45;8.40;;;;;;;4.67;84.12;102775.19;5002086;28;20433;-59
2022/04/30 02:27:45;;;;;;;15.80;9.05;;;;;;;4.64;84.44;102785.47;5000519;28;20026;-59
2022/04/30 02:30:19;;;;;;;13.38;8.70;;;;;;;4.63;84.60;102784.63;5002895;28;20025;-59
2022/04/30 02:32:53;;;;;;;11.90;8.23;;;;;;;4.57;84.62;102785.22;5001595;28;20499;-59
2022/04/30 02:35:20;;;;;;;13.82;8.48;;;;;;;4.56;84.75;102786.22;5000136;28;20057;-59
2022/04/30 02:37:49;;;;;;;13.93;8.57;;;;;;;4.51;85.07;102776.75;5001650;28;20118;-59
2022/04/30 02:40:16;;;;;;;14.90;8.85;;;;;;;4.46;85.31;102779.91;4999086;28;20477;-59
2022/04/30 02:42:42;;;;;;;15.10;8.73;;;;;;;4.41;85.25;102774.06;5002840;28;20033;-59
2022/04/30 02:45:09;;;;;;;13.85;8.45;;;;;;;4.42;85.40;102775.75;5000406;28;20037;-59
2022/04/30 02:47:36;;;;;;;13.68;8.75;;;;;;;4.43;85.92;102769.31;5001775;28;20514;-59
2022/04/30 02:50:02;;;;;;;16.08;9.70;;;;;;;4.48;86.21;102771.59;5000904;28;20161;-59
2022/04/30 02:52:28;;;;;;;13.68;9.73;;;;;;;4.48;86.58;102767.03;5001701;28;20030;-59
2022/04/30 02:54:53;;;;;;;14.13;9.27;;;;;;;4.43;86.06;102759.28;5000686;28;20040;-59
2022/04/30 02:57:18;;;;;;;12.93;9.73;;;;;;;4.48;86.50;102766.16;5001896;28;20037;-59
2022/04/30 02:59:55;;;;;;;14.07;8.90;;;;;;;4.51;86.61;102768.56;5000500;28;20029;-59
2022/04/30 03:02:21;;;;;;;17.63;9.80;;;;;;;4.50;86.19;102759.56;5001727;28;20054;-59
2022/04/30 03:04:53;;;;;;;14.60;9.52;;;;;;;4.49;86.51;102760.56;5001130;28;20030;-59
2022/04/30 03:07:19;;;;;;;15.75;9.27;;;;;;;4.51;86.59;102774.03;5000879;28;20026;-59
2022/04/30 03:09:47;;;;;;;15.02;10.00;;;;;;;4.47;86.48;102761.72;5002357;28;20435;-60
2022/04/30 03:12:13;;;;;;;14.48;9.35;;;;;;;4.48;86.42;102766.16;5000568;28;20683;-59
2022/04/30 03:14:38;;;;;;;14.68;9.55;;;;;;;4.45;86.76;102761.84;5002063;28;20717;-60
2022/04/30 03:22:32;;;;;;;14.75;9.02;;;;;;;4.41;86.52;102753.16;5002038;28;20408;-60
2022/04/30 03:24:57;;;;;;;15.23;8.77;;;;;;;4.39;86.54;102755.13;5001169;28;20026;-59
2022/04/30 03:27:22;;;;;;;15.57;9.45;;;;;;;4.36;86.76;102752.72;4995418;28;20072;-59
2022/04/30 03:29:48;;;;;;;15.85;9.48;;;;;;;4.35;86.69;102756.41;5000926;28;20026;-59
2022/04/30 03:32:13;;;;;;;15.57;9.23;;;;;;;4.31;86.83;102746.84;5001962;28;20034;-59
2022/04/30 03:34:38;;;;;;;15.10;9.45;;;;;;;4.29;87.14;102754.28;5005246;28;20176;-59
2022/04/30 03:37:04;;;;;;;14.52;8.88;;;;;;;4.26;87.20;102749.13;5002996;28;20120;-59
2022/04/30 03:39:30;;;;;;;14.57;9.15;;;;;;;4.22;86.80;102744.13;5004850;28;20053;-59
2022/04/30 03:41:55;;;;;;;14.10;9.38;;;;;;;4.20;87.18;102743.38;5004269;28;20026;-59
2022/04/30 03:44:21;;;;;;;14.88;9.82;;;;;;;4.16;87.37;102737.38;5004615;28;20026;-59
2022/04/30 03:46:46;;;;;;;16.25;10.27;;;;;;;4.14;87.11;102742.09;5005355;28;20026;-58
2022/04/30 03:49:12;;;;;;;15.60;9.32;;;;;;;4.12;87.21;102749.56;5004805;28;20041;-60
2022/04/30 03:51:37;;;;;;;17.65;9.75;;;;;;;4.08;87.61;102738.09;5004660;28;20026;-59
2022/04/30 03:54:03;;;;;;;13.75;9.07;;;;;;;4.05;87.68;102740.22;5004440;28;20137;-60
2022/04/30 03:56:28;;;;;;;16.70;9.70;;;;;;;4.03;87.87;102742.22;5003896;28;20117;-59
2022/04/30 03:58:53;;;;;;;17.00;10.25;;;;;;;3.99;87.73;102746.22;5004017;28;20433;-59
2022/04/30 04:01:19;;;;;;;15.82;10.10;;;;;;;3.96;87.98;102747.38;5003821;28;20129;-60
2022/04/30 04:03:45;;;;;;;16.15;9.90;;;;;;;3.90;88.16;102743.38;5004194;28;20053;-59
2022/04/30 04:06:13;;;;;;;14.95;10.20;;;;;;;3.88;88.41;102745.34;5002841;28;20041;-60
2022/04/30 04:08:39;;;;;;;16.50;10.20;;;;;;;3.85;88.53;102742.94;5005116;28;20030;-59
2022/04/30 04:11:10;;;;;;;15.63;10.00;;;;;;;3.84;88.46;102743.06;5002962;28;20029;-59
2022/04/30 04:19:03;;;;;;;18.35;10.23;;;;;;;3.78;88.77;102744.47;5004130;28;20053;-59
2022/04/30 04:21:29;;;;;;;16.98;10.75;;;;;;;3.76;88.87;102745.63;5003271;28;20030;-59
2022/04/30 04:26:38;;;;;;;19.08;10.80;;;;;;;3.80;89.30;102747.03;5001408;28;20063;-59
2022/04/30 04:29:03;;;;;;;18.42;11.43;;;;;;;3.80;89.62;102741.59;4999172;28;20477;-59
2022/04/30 04:31:28;;;;;;;19.35;11.15;;;;;;;3.83;89.30;102747.63;5001322;28;20029;-59
2022/04/30 04:33:53;;;;;;;15.70;10.07;;;;;;;3.83;89.12;102747.63;5003436;28;20029;-59
2022/04/30 04:36:19;;;;;;;17.35;10.38;;;;;;;3.84;89.25;102748.50;5002487;28;20561;-59
2022/04/30 04:38:45;;;;;;;15.60;9.95;;;;;;;3.84;89.56;102749.34;5003326;28;20030;-59
2022/04/30 04:41:10;;;;;;;17.48;10.70;;;;;;;3.86;89.59;102747.38;5001626;28;20125;-59
2022/04/30 04:43:35;;;;;;;17.73;10.73;;;;;;;3.88;89.44;102752.66;5003816;28;20056;-59
2022/04/30 04:46:02;;;;;;;17.30;10.88;;;;;;;3.88;89.35;102753.50;5003457;28;20036;-60
2022/04/30 04:48:28;;;;;;;17.98;10.05;;;;;;;3.89;89.08;102763.38;5002690;28;20448;-59
2022/04/30 04:50:54;;;;;;;18.15;11.02;;;;;;;3.89;89.14;102763.38;5002467;28;20449;-59
2022/04/30 04:53:19;;;;;;;18.45;10.85;;;;;;;3.88;89.03;102760.81;5003291;28;20115;-60
2022/04/30 04:55:45;;;;;;;15.75;10.93;;;;;;;3.90;89.10;102764.22;5003326;28;20474;-59
2022/04/30 04:58:10;;;;;;;17.50;11.32;;;;;;;3.91;89.20;102765.97;5003570;28;20409;-59
2022/04/30 05:00:35;;;;;;;17.83;10.80;;;;;;;3.93;89.50;102776.69;5002658;28;20125;-59
2022/04/30 05:03:01;;;;;;;18.60;10.85;;;;;;;3.99;89.54;102781.56;5003665;28;20523;-59
2022/04/30 05:05:26;;;;;;;17.20;11.40;;;;;;;4.02;89.68;102776.72;4999317;28;20629;-59
2022/04/30 05:07:51;;;;;;;20.50;11.30;;;;;;;4.04;89.31;102780.16;5003160;28;20038;-60
2022/04/30 05:10:16;;;;;;;19.70;11.80;;;;;;;4.09;90.00;102780.59;5002169;28;20152;-60
2022/04/30 05:12:45;;;;;;;19.85;11.65;;;;;;;4.15;89.78;102790.88;5003164;28;20057;-58
2022/04/30 05:15:10;;;;;;;19.17;12.68;;;;;;;4.23;90.09;102783.91;5000412;28;20041;-59
2022/04/30 05:17:36;;;;;;;20.20;11.43;;;;;;;4.29;90.20;102788.78;5003569;28;20034;-59
2022/04/30 05:20:01;;;;;;;20.25;12.32;;;;;;;4.36;90.07;102792.66;5003046;28;20064;-59
2022/04/30 05:22:26;;;;;;;19.92;12.48;;;;;;;4.46;90.56;102792.63;5001461;28;20056;-59
2022/04/30 05:24:51;;;;;;;18.58;12.85;;;;;;;4.54;90.79;102785.47;5001474;28;20018;-59
2022/04/30 05:27:17;;;;;;;20.25;12.60;;;;;;;4.62;90.67;102788.34;4995843;28;20042;-59
2022/04/30 05:29:43;;;;;;;19.60;12.07;;;;;;;4.67;90.66;102786.06;5003027;28;20029;-59
2022/04/30 05:32:09;;;;;;;22.42;12.80;;;;;;;4.71;90.74;102780.31;5001185;28;20029;-59
2022/04/30 05:34:34;;;;;;;21.33;13.02;;;;;;;4.75;90.61;102776.31;5000919;28;20053;-59
2022/04/30 05:36:59;;;;;;;22.23;13.32;;;;;;;4.83;90.79;102773.72;5001614;28;20056;-59
2022/04/30 05:39:26;;;;;;;21.00;12.80;;;;;;;4.89;90.45;102779.44;5001043;28;20076;-59
2022/04/30 05:41:51;;;;;;;21.02;13.50;;;;;;;4.95;90.27;102788.88;5000816;28;21611;-59
2022/04/30 05:44:16;;;;;;;23.27;14.20;;;;;;;5.04;90.64;102785.28;5004954;28;20022;-59
2022/04/30 05:46:42;;;;;;;22.15;14.77;;;;;;;5.09;90.79;102791.16;5003765;28;20113;-60
2022/04/30 05:49:07;;;;;;;27.08;14.68;;;;;;;5.19;90.73;102778.38;5000569;28;20030;-60
2022/04/30 05:51:33;;;;;;;28.33;14.30;;;;;;;5.26;90.95;102796.84;5000828;28;20037;-59
2022/04/30 05:53:58;;;;;;;23.30;14.48;;;;;;;5.33;90.58;102779.75;5002242;28;20038;-59
2022/04/30 05:56:24;;;;;;;23.38;14.93;;;;;;;5.39;90.43;102770.97;4999839;28;20034;-59
2022/04/30 05:58:49;;;;;;;22.27;14.10;;;;;;;5.47;90.34;102779.28;5002529;28;20161;-60
2022/04/30 06:01:15;;;;;;;22.77;14.68;;;;;;;5.55;90.25;102780.38;5003066;28;20026;-59
2022/04/30 06:03:40;;;;;;;26.20;14.65;;;;;;;5.61;89.86;102779.78;5000542;28;20479;-59
2022/04/30 06:06:05;;;;;;;26.35;14.52;;;;;;;5.69;89.91;102783.47;5003325;28;20464;-58
2022/04/30 06:08:31;;;;;;;23.63;15.10;;;;;;;5.77;89.83;102790.03;5003256;28;20480;-61
2022/04/30 06:10:56;;;;;;;27.33;15.23;;;;;;;5.82;89.62;102785.84;5002159;28;20058;-58
2022/04/30 06:13:22;;;;;;;24.45;15.13;;;;;;;5.86;89.19;102780.94;4999697;28;20040;-57
2022/04/30 06:15:47;;;;;;;26.73;15.20;;;;;;;5.93;88.86;102782.94;5000251;28;20076;-58
2022/04/30 06:18:15;;;;;;;28.23;15.75;;;;;;;6.02;88.71;102785.75;4999119;28;20054;-58
2022/04/30 06:20:40;;;;;;;26.90;15.23;;;;;;;6.09;88.59;102793.19;5002373;28;20314;-57
2022/04/30 06:23:06;;;;;;;24.92;15.20;;;;;;;6.17;88.63;102793.25;5002998;28;20030;-58
2022/04/30 06:25:31;;;;;;;27.50;16.42;;;;;;;6.22;87.96;102796.38;4997900;28;20034;-58
2022/04/30 06:27:57;;;;;;;28.13;16.55;;;;;;;6.32;88.09;102795.47;4997870;28;20092;-58
2022/04/30 06:30:23;;;;;;;24.77;15.98;;;;;;;6.39;87.52;102791.13;5000446;28;20323;-58
2022/04/30 06:32:48;;;;;;;31.08;16.15;;;;;;;6.47;87.79;102799.38;5002544;28;20358;-58
2022/04/30 06:35:13;;;;;;;29.48;15.90;;;;;;;6.55;87.48;102795.88;4998368;28;20124;-58
2022/04/30 06:37:38;;;;;;;29.52;16.48;;;;;;;6.61;87.08;102796.09;4996179;28;20460;-58
2022/04/30 06:40:05;;;;;;;27.75;15.50;;;;;;;6.69;86.65;102798.03;5000865;28;20030;-58
2022/04/30 06:42:40;;;;;;;29.27;16.33;;;;;;;6.81;86.31;102787.72;4999635;28;20129;-58
2022/04/30 06:45:07;;;;;;;28.77;17.77;;;;;;;6.92;86.23;102782.00;5000163;28;20030;-58
2022/04/30 06:47:32;;;;;;;30.55;16.60;;;;;;;7.04;85.67;102783.44;4997969;28;20425;-58
2022/04/30 06:49:58;;;;;;;29.17;16.73;;;;;;;7.22;84.63;102784.28;5000410;28;20028;-58
2022/04/30 06:52:23;;;;;;;32.58;17.70;;;;;;;7.43;85.05;102791.22;4997818;28;20453;-58
2022/04/30 06:57:32;;;;;;;32.47;16.63;;;;;;;7.76;83.44;102787.63;4998676;28;20475;-58
2022/04/30 06:59:59;;;;;;;30.45;16.38;;;;;;;7.90;82.12;102785.28;4997177;28;20247;-59
2022/04/30 07:02:26;;;;;;;31.02;17.67;;;;;;;8.31;80.76;102786.22;5000951;28;20076;-59
2022/04/30 07:04:52;;;;;;;30.35;16.13;;;;;;;8.64;78.86;102787.19;5005021;28;20018;-58
2022/04/30 07:07:21;;;;;;;28.35;15.95;;;;;;;8.76;77.70;102791.28;5002649;28;20431;-58
2022/04/30 07:09:47;;;;;;;30.98;16.60;;;;;;;8.79;77.73;102785.47;5004822;28;20100;-58
2022/04/30 07:12:14;;;;;;;25.60;15.80;;;;;;;8.79;77.50;102787.34;5005242;28;20033;-57
2022/04/30 07:14:41;;;;;;;31.45;17.17;;;;;;;8.79;77.14;102784.63;5005315;28;20042;-58
2022/04/30 07:17:11;;;;;;;26.40;15.55;;;;;;;8.88;76.60;102793.69;5006477;28;21024;-59
2022/04/30 07:19:37;;;;;;;31.00;16.05;;;;;;;8.99;76.46;102785.97;5020620;28;20040;-58
2022/04/30 07:22:03;;;;;;;27.98;15.65;;;;;;;9.42;76.93;102792.06;5004095;28;20034;-58
2022/04/30 07:24:30;;;;;;;28.92;15.07;;;;;;;9.95;73.28;102782.25;5005160;28;20026;-58
2022/04/30 07:26:56;;;;;;;33.55;15.63;;;;;;;10.03;72.32;102784.94;5000181;28;20041;-59
2022/04/30 07:29:21;;;;;;;28.10;15.23;;;;;;;10.07;72.35;102786.31;4986096;28;20027;-59
2022/04/30 07:31:46;;;;;;;27.15;14.48;;;;;;;10.03;71.33;102776.72;5002722;28;20034;-58
2022/04/30 07:34:12;;;;;;;32.25;15.48;;;;;;;10.14;72.07;102776.31;5004879;28;20432;-58
2022/04/30 07:36:38;;;;;;;28.77;15.18;;;;;;;10.59;71.43;102782.03;5005865;28;20050;-59
2022/04/30 07:39:04;;;;;;;25.15;14.65;;;;;;;10.75;68.68;102781.94;5003375;28;20072;-59
2022/04/30 07:41:29;;;;;;;26.52;14.27;;;;;;;10.61;68.99;102774.50;5004567;28;20033;-58
2022/04/30 07:43:55;;;;;;;28.63;14.18;;;;;;;10.45;68.67;102774.63;5003642;28;20049;-59
2022/04/30 07:46:22;;;;;;;26.60;13.90;;;;;;;10.43;68.95;102773.94;5005217;28;20061;-59
2022/04/30 07:48:48;;;;;;;27.77;14.07;;;;;;;10.41;68.72;102776.00;5004347;28;20417;-59
2022/04/30 07:51:14;;;;;;;25.38;13.40;;;;;;;10.44;69.94;102772.88;5004244;28;20073;-59
2022/04/30 07:53:41;;;;;;;22.58;13.48;;;;;;;10.42;69.31;102774.97;5004567;28;20030;-56
2022/04/30 07:56:07;;;;;;;25.33;13.90;;;;;;;10.44;68.46;102767.38;5004259;28;20084;-59
2022/04/30 07:58:32;;;;;;;25.00;13.35;;;;;;;10.51;69.63;102771.13;5004490;28;20030;-58
2022/04/30 08:00:57;;;;;;;25.00;12.98;;;;;;;10.59;69.69;102768.31;5003260;28;20231;-58
2022/04/30 08:03:23;;;;;;;26.15;13.40;;;;;;;10.53;67.96;102769.03;5001310;28;20057;-59
2022/04/30 08:05:48;;;;;;;22.25;13.05;;;;;;;10.58;69.03;102766.59;4997577;28;20033;-58
2022/04/30 08:08:13;;;;;;;25.70;13.00;;;;;;;10.78;68.54;102773.31;5004423;28;20080;-59
2022/04/30 08:10:38;;;;;;;22.08;13.07;;;;;;;10.92;68.07;102760.66;5002710;28;20425;-59
2022/04/30 08:13:06;;;;;;;21.20;12.75;;;;;;;11.04;67.23;102763.78;5003054;28;20080;-59
2022/04/30 08:15:31;;;;;;;25.50;12.68;;;;;;;11.28;67.74;102768.19;5003968;28;20455;-58
2022/04/30 08:17:56;;;;;;;25.77;12.82;;;;;;;11.39;65.49;102757.56;5003873;28;20062;-59
2022/04/30 08:20:22;;;;;;;23.70;12.88;;;;;;;11.49;64.98;102759.19;5003317;28;20025;-59
2022/04/30 08:22:47;;;;;;;25.33;12.18;;;;;;;11.35;65.26;102759.00;5004835;28;20041;-59
2022/04/30 08:25:12;;;;;;;21.08;12.00;;;;;;;11.16;64.45;102759.56;5003666;28;20477;-59
2022/04/30 08:27:37;;;;;;;20.08;13.13;;;;;;;10.98;64.29;102754.41;5005155;28;20022;-59
2022/04/30 08:30:03;;;;;;;23.70;12.82;;;;;;;10.99;65.26;102755.25;5004646;28;20329;-59
2022/04/30 08:32:29;;;;;;;22.98;12.48;;;;;;;11.21;67.24;102756.25;5003956;28;20109;-59
2022/04/30 08:34:54;;;;;;;24.75;12.63;;;;;;;11.35;65.68;102748.00;5002450;28;20034;-59
2022/04/30 08:37:20;;;;;;;22.45;12.77;;;;;;;11.33;66.06;102747.31;5002050;28;20026;-58
2022/04/30 08:39:46;;;;;;;20.33;12.90;;;;;;;11.29;66.45;102748.75;5002541;28;20432;-59
2022/04/30 08:42:15;;;;;;;22.17;12.82;;;;;;;11.13;66.42;102744.28;5004438;28;20145;-60
2022/04/30 08:44:40;;;;;;;21.25;11.07;;;;;;;10.87;66.23;102750.22;5002825;28;20037;-58
2022/04/30 08:47:10;;;;;;;21.42;11.45;;;;;;;10.63;66.65;102754.00;5003879;28;20456;-58
2022/04/30 08:49:37;;;;;;;20.10;11.43;;;;;;;10.45;68.24;102750.75;5003811;28;20567;-59
2022/04/30 08:52:03;;;;;;;20.58;12.13;;;;;;;10.34;68.68;102749.28;5002138;28;20076;-59
2022/04/30 08:54:28;;;;;;;21.70;12.88;;;;;;;10.28;68.43;102749.13;5002903;28;20054;-58
2022/04/30 08:56:55;;;;;;;21.30;11.82;;;;;;;10.34;69.49;102748.41;5002677;28;20515;-59
2022/04/30 08:59:21;;;;;;;18.40;11.70;;;;;;;10.44;67.70;102753.66;5003271;28;20108;-59
2022/04/30 09:01:51;;;;;;;22.05;12.48;;;;;;;10.47;67.85;102745.06;5002763;28;20097;-58
2022/04/30 09:04:18;;;;;;;21.00;12.45;;;;;;;10.60;68.31;102748.06;5001748;28;20077;-59
2022/04/30 09:06:55;;;;;;;20.63;11.45;;;;;;;10.71;66.92;102733.88;5003145;28;20077;-59
2022/04/30 09:09:23;;;;;;;19.20;11.10;;;;;;;10.75;65.55;102728.88;5002369;28;20377;-59
2022/04/30 09:11:48;;;;;;;19.92;11.32;;;;;;;10.75;65.05;102740.72;5000796;28;20330;-59
2022/04/30 09:14:13;;;;;;;16.88;10.85;;;;;;;10.82;64.08;102738.06;5002841;28;20460;-59
2022/04/30 09:16:39;;;;;;;18.75;11.20;;;;;;;10.90;64.39;102738.00;5003402;28;20413;-59
2022/04/30 09:19:04;;;;;;;18.42;11.32;;;;;;;11.00;63.85;102732.19;5002444;28;20080;-60
2022/04/30 09:21:30;;;;;;;18.13;10.45;;;;;;;11.16;63.52;102740.31;5003054;28;20038;-61
2022/04/30 09:24:05;;;;;;;21.17;10.65;;;;;;;11.31;63.26;102732.91;5003476;28;20028;-61
2022/04/30 09:26:40;;;;;;;17.95;10.75;;;;;;;11.38;62.49;102731.09;5002580;28;20040;-61
2022/04/30 09:29:20;;;;;;;20.55;10.85;;;;;;;11.50;61.79;102725.09;5004529;28;20051;-61
2022/04/30 09:31:53;;;;;;;19.83;12.02;;;;;;;11.60;62.59;102723.78;5002708;28;20021;-61
2022/04/30 09:39:49;;;;;;;14.63;8.82;;;;;;;12.17;59.12;102712.00;5002151;28;20041;-61
2022/04/30 09:42:15;;;;;;;15.32;8.52;;;;;;;12.34;56.10;102720.84;5002519;28;20428;-61
2022/04/30 09:44:40;;;;;;;13.38;8.50;;;;;;;12.49;56.55;102714.44;5003051;28;20022;-61
2022/04/30 09:47:07;;;;;;;18.85;9.20;;;;;;;12.64;56.70;102715.19;5002828;28;20034;-61
2022/04/30 09:55:03;;;;;;;17.73;9.45;;;;;;;12.75;55.23;102711.91;5002604;28;20049;-61
2022/04/30 09:57:34;;;;;;;20.45;9.40;;;;;;;12.81;55.88;102711.09;5001834;28;20037;-60
2022/04/30 09:59:59;;;;;;;16.60;8.82;;;;;;;12.94;56.21;102704.84;5001705;28;20244;-60
2022/04/30 10:02:28;;;;;;;18.27;9.95;;;;;;;12.96;53.98;102698.06;5002232;28;20049;-60
2022/04/30 10:04:55;;;;;;;14.20;8.32;;;;;;;13.05;53.10;102698.75;4987678;28;20034;-60
2022/04/30 10:07:24;;;;;;;14.20;8.83;;;;;;;13.18;53.83;102700.75;4982658;28;20026;-60
2022/04/30 10:09:58;;;;;;;14.63;8.68;;;;;;;13.32;54.66;102694.28;4983443;28;20281;-60
2022/04/30 10:12:35;;;;;;;15.77;9.48;;;;;;;13.39;52.30;102691.56;5001634;28;20030;-64
2022/04/30 10:15:23;;;;;;;16.45;8.80;;;;;;;13.66;52.60;102690.63;4998385;28;20522;-63
2022/04/30 10:17:54;;;;;;;16.42;8.02;;;;;;;13.69;51.06;102687.47;5000494;28;20026;-64
2022/04/30 10:20:28;;;;;;;12.07;8.15;;;;;;;13.95;53.37;102683.09;4999203;28;20504;-63
2022/04/30 10:22:56;;;;;;;12.70;7.05;;;;;;;14.40;48.56;102684.22;5001063;28;20076;-63
2022/04/30 10:25:36;;;;;;;12.98;6.85;;;;;;;15.81;48.52;102672.69;4999961;28;20303;-63
2022/04/30 10:28:23;;;;;;;13.40;6.60;;;;;;;18.88;44.95;102664.25;5001205;28;20372;-63
2022/04/30 10:31:00;;;;;;;11.57;7.30;;;;;;;20.99;38.04;102664.22;5001156;28;20045;-63
2022/04/30 10:33:26;;;;;;;14.30;8.05;;;;;;;21.30;34.33;102667.50;5001247;28;20083;-63
2022/04/30 10:36:04;;;;;;;13.93;8.30;;;;;;;20.14;38.23;102672.81;5016121;28;20460;-63
2022/04/30 10:38:29;;;;;;;13.67;9.70;;;;;;;19.78;36.01;102660.97;4997691;28;20041;-63
2022/04/30 10:40:58;;;;;;;15.10;9.40;;;;;;;19.07;37.42;102667.78;4997876;28;20030;-63
2022/04/30 10:43:27;;;;;;;13.77;9.25;;;;;;;17.74;39.51;102669.91;5003939;28;20030;-64
2022/04/30 10:45:56;;;;;;;13.48;8.65;;;;;;;16.84;43.65;102667.69;5005088;28;20037;-63
2022/04/30 10:48:21;;;;;;;14.50;8.98;;;;;;;16.40;43.99;102665.06;5005498;28;20026;-63
2022/04/30 10:50:51;;;;;;;16.15;9.35;;;;;;;18.06;41.54;102655.75;5005062;28;20126;-63
2022/04/30 10:53:23;;;;;;;17.25;8.73;;;;;;;18.22;40.60;102651.44;5005260;28;20041;-64
2022/04/30 10:55:49;;;;;;;15.80;8.75;;;;;;;17.29;41.33;102648.00;5004461;28;20095;-64
2022/04/30 10:58:24;;;;;;;15.13;8.82;;;;;;;16.46;42.39;102653.06;5005591;28;20026;-63
2022/04/30 11:00:50;;;;;;;11.93;8.10;;;;;;;15.79;43.80;102645.19;5004820;28;20030;-63
2022/04/30 11:03:17;;;;;;;11.30;8.07;;;;;;;15.35;45.44;102653.47;5004182;28;20566;-63
2022/04/30 11:05:43;;;;;;;12.88;8.60;;;;;;;15.04;44.83;102649.50;5003680;28;20254;-63
2022/04/30 11:08:09;;;;;;;17.65;8.52;;;;;;;15.55;45.38;102644.00;5004892;28;20109;-63
2022/04/30 11:10:35;;;;;;;11.90;7.03;;;;;;;16.71;45.51;102641.94;5003604;28;20104;-62
2022/04/30 11:13:06;;;;;;;11.27;8.45;;;;;;;17.10;40.37;102636.03;5005093;28;20036;-62
2022/04/30 11:15:32;;;;;;;15.57;7.20;;;;;;;17.56;40.87;102629.06;4998482;28;20041;-62
2022/04/30 11:17:59;;;;;;;11.50;6.68;;;;;;;17.94;39.42;102630.69;5005953;28;20026;-62
2022/04/30 11:20:26;;;;;;;11.63;6.95;;;;;;;17.99;37.74;102627.19;5019384;28;20128;-62
2022/04/30 11:23:02;;;;;;;11.07;7.22;;;;;;;18.10;38.47;102624.47;4998807;28;20038;-62
2022/04/30 11:25:36;;;;;;;14.85;6.85;;;;;;;18.39;38.59;102621.84;5018583;28;20037;-62
2022/04/30 11:28:05;;;;;;;10.93;6.35;;;;;;;18.15;39.32;102618.19;5003426;28;20358;-62
2022/04/30 11:30:34;;;;;;;9.30;6.40;;;;;;;17.76;39.65;102606.59;5003573;28;20125;-62
2022/04/30 11:33:00;;;;;;;9.23;5.05;;;;;;;17.81;37.93;102608.66;5005654;28;20385;-62
2022/04/30 11:35:25;;;;;;;11.88;7.18;;;;;;;17.20;39.11;102609.66;5002426;28;20029;-62
2022/04/30 11:37:50;;;;;;;10.48;6.63;;;;;;;16.99;39.34;102609.03;5004233;28;20787;-62
2022/04/30 11:40:16;;;;;;;11.63;6.85;;;;;;;17.40;36.58;102599.16;4987661;28;20033;-62
2022/04/30 11:42:41;;;;;;;10.02;6.50;;;;;;;17.80;37.76;102596.69;4980228;28;20116;-62
2022/04/30 11:45:07;;;;;;;11.25;6.63;;;;;;;17.18;38.41;102595.97;5004722;28;20076;-63
2022/04/30 11:47:32;;;;;;;11.05;6.40;;;;;;;16.73;40.89;102601.00;5003313;28;20037;-63
2022/04/30 11:50:09;;;;;;;11.85;7.72;;;;;;;16.71;42.75;102611.44;5000765;28;20034;-63